Time;durP1;ratioP1;P1;durP2;ratioP2;P2;SDS_P1;SDS_P2;PMS_P1;PMS_P2;Temp;Humidity;BMP_temperature;BMP_pressure;BME280_temperature;BME280_humidity;BME280_pressure;Samples;Min_cycle;Max_cycle;Signal;HPM_P1;HPM_P2
2022/07/21 00:01:57;;;;;;;10.73;8.30;;;;;;;20.54;91.56;100482.00;5103519;27;20474;-65
2022/07/21 00:04:23;;;;;;;10.30;9.10;;;;;;;20.47;92.56;100464.84;5104320;28;20427;-65
2022/07/21 00:06:50;;;;;;;9.30;8.40;;;;;;;20.50;92.62;100462.56;5103198;27;20470;-65
2022/07/21 00:09:17;;;;;;;12.87;10.10;;;;;;;20.40;92.93;100467.50;5103559;28;20481;-65
2022/07/21 00:11:44;;;;;;;12.50;9.23;;;;;;;20.42;92.73;100424.69;5102923;27;20502;-65
2022/07/21 00:14:11;;;;;;;10.70;9.67;;;;;;;20.57;92.25;100402.84;5104096;28;20435;-65
2022/07/21 00:16:40;;;;;;;13.60;10.00;;;;;;;20.54;92.56;100384.22;5102557;27;20479;-65
2022/07/21 00:19:08;;;;;;;10.70;9.30;;;;;;;20.36;93.44;100381.22;5103440;28;20898;-65
2022/07/21 00:21:35;;;;;;;12.37;10.30;;;;;;;20.46;93.13;100416.97;5103573;27;20556;-65
2022/07/21 00:24:01;;;;;;;14.23;10.13;;;;;;;20.45;93.01;100415.28;5103834;28;20423;-66
2022/07/21 00:26:28;;;;;;;11.90;10.70;;;;;;;20.49;93.19;100422.84;5102437;27;20528;-65
2022/07/21 00:28:55;;;;;;;14.90;10.10;;;;;;;20.52;91.89;100440.63;5103290;28;20454;-65
2022/07/21 00:31:21;;;;;;;10.00;8.83;;;;;;;20.49;92.56;100450.00;5102832;27;20475;-65
2022/07/21 00:33:51;;;;;;;11.00;9.60;;;;;;;20.58;92.10;100436.25;5103324;28;20503;-65
2022/07/21 00:36:18;;;;;;;11.23;8.77;;;;;;;20.56;91.30;100431.03;5102297;27;20573;-65
2022/07/21 00:38:44;;;;;;;10.27;9.37;;;;;;;20.64;91.70;100433.63;5103152;28;20509;-65
2022/07/21 00:41:11;;;;;;;15.23;9.97;;;;;;;20.71;91.76;100430.94;5102477;27;20474;-66
2022/07/21 00:43:38;;;;;;;11.10;9.40;;;;;;;20.71;90.97;100422.78;5103371;28;20428;-65
2022/07/21 00:46:05;;;;;;;13.20;8.80;;;;;;;20.69;91.25;100439.28;5102219;27;20475;-65
2022/07/21 00:48:31;;;;;;;11.23;8.80;;;;;;;20.87;88.85;100462.34;5102782;28;20477;-65
2022/07/21 00:50:59;;;;;;;11.60;9.30;;;;;;;20.82;89.95;100471.09;5102203;27;20475;-65
2022/07/21 00:53:26;;;;;;;10.23;8.60;;;;;;;20.93;89.78;100466.94;5103064;28;20927;-64
2022/07/21 00:55:53;;;;;;;11.37;9.80;;;;;;;20.86;89.61;100463.38;5100705;27;20474;-65
2022/07/21 00:58:20;;;;;;;10.43;9.20;;;;;;;20.60;91.10;100461.34;5103027;28;20554;-64
2022/07/21 01:00:47;;;;;;;12.60;9.77;;;;;;;20.37;93.81;100472.50;5102250;27;20471;-63
2022/07/21 01:03:14;;;;;;;13.47;10.43;;;;;;;20.35;95.16;100471.88;5102826;28;20431;-63
2022/07/21 01:05:40;;;;;;;12.60;11.33;;;;;;;20.42;94.73;100461.88;5102139;27;20509;-64
2022/07/21 01:08:08;;;;;;;15.20;12.03;;;;;;;20.32;95.42;100471.22;5102576;28;20427;-63
2022/07/21 01:10:35;;;;;;;13.60;10.73;;;;;;;20.28;95.17;100483.50;5101440;27;20470;-64
2022/07/21 01:13:02;;;;;;;14.90;11.57;;;;;;;20.37;94.73;100495.06;5102544;28;20459;-64
2022/07/21 01:15:30;;;;;;;11.80;10.60;;;;;;;20.37;93.98;100496.94;5102166;27;21058;-64
2022/07/21 01:17:56;;;;;;;12.37;11.03;;;;;;;20.45;93.56;100513.06;5102337;28;20423;-64
2022/07/21 01:20:24;;;;;;;12.30;10.80;;;;;;;20.58;92.74;100529.44;5102028;27;20501;-64
2022/07/21 01:22:55;;;;;;;10.90;9.80;;;;;;;20.78;91.80;100526.88;5101902;28;20431;-64
2022/07/21 01:25:22;;;;;;;12.73;9.97;;;;;;;20.88;91.83;100535.53;5101654;27;20450;-64
2022/07/21 01:27:49;;;;;;;13.33;10.37;;;;;;;20.99;91.41;100541.41;5102650;28;20427;-63
2022/07/21 01:30:16;;;;;;;12.40;10.53;;;;;;;20.99;90.90;100544.97;5102167;27;20501;-64
2022/07/21 01:32:43;;;;;;;10.97;9.97;;;;;;;21.04;90.96;100533.50;5101976;28;21138;-64
2022/07/21 01:35:12;;;;;;;13.43;10.63;;;;;;;21.10;89.23;100524.50;5101567;27;20512;-64
2022/07/21 01:37:41;;;;;;;16.50;10.50;;;;;;;21.08;89.26;100507.56;5102141;28;20503;-64
2022/07/21 01:42:54;;;;;;;13.63;10.40;;;;;;;21.06;90.75;100477.03;5101442;28;20413;-64
2022/07/21 01:45:22;;;;;;;11.93;10.73;;;;;;;21.01;91.98;100460.50;5101130;27;20955;-64
2022/07/21 01:47:48;;;;;;;11.97;10.30;;;;;;;21.05;92.32;100449.00;5101310;28;20427;-64
2022/07/21 01:50:16;;;;;;;18.13;11.90;;;;;;;20.75;92.82;100432.19;5101189;27;20473;-64
2022/07/21 01:52:42;;;;;;;12.20;10.30;;;;;;;20.59;94.88;100430.63;5101810;28;20453;-64
2022/07/21 01:55:10;;;;;;;12.80;11.60;;;;;;;20.92;93.63;100450.84;5100705;27;20442;-64
2022/07/21 01:57:37;;;;;;;13.67;11.57;;;;;;;20.95;93.14;100447.72;5102201;28;20431;-64
2022/07/21 02:00:06;;;;;;;14.27;11.80;;;;;;;20.92;93.13;100440.81;5101571;28;20774;-64
2022/07/21 02:02:32;;;;;;;12.43;11.23;;;;;;;20.93;92.50;100430.78;5101190;28;20451;-64
2022/07/21 02:04:59;;;;;;;13.13;11.73;;;;;;;20.96;92.25;100417.63;5101183;28;20471;-64
2022/07/21 02:07:25;;;;;;;12.30;11.00;;;;;;;20.91;92.25;100392.09;5100949;27;20501;-64
2022/07/21 02:09:52;;;;;;;11.67;10.40;;;;;;;20.94;91.98;100389.81;5100988;28;20473;-64
2022/07/21 02:12:20;;;;;;;14.50;11.87;;;;;;;20.93;92.16;100382.69;5100631;27;20501;-64
2022/07/21 02:14:47;;;;;;;12.33;11.20;;;;;;;20.92;91.82;100391.03;5101375;28;20459;-64
2022/07/21 02:17:13;;;;;;;14.43;10.30;;;;;;;20.94;91.52;100389.81;5100736;27;20525;-64
2022/07/21 02:19:40;;;;;;;13.60;11.10;;;;;;;20.91;91.62;100397.53;5101256;28;20491;-64
2022/07/21 02:22:07;;;;;;;14.53;11.63;;;;;;;20.74;91.94;100381.59;5101130;27;20475;-64
2022/07/21 02:24:34;;;;;;;13.83;11.60;;;;;;;20.86;91.78;100379.94;5101184;28;20462;-64
2022/07/21 02:27:01;;;;;;;12.90;10.90;;;;;;;20.90;91.44;100363.25;5100224;27;20570;-64
2022/07/21 02:29:29;;;;;;;12.73;11.53;;;;;;;20.88;92.01;100363.44;5101492;28;20442;-64
2022/07/21 02:31:56;;;;;;;12.60;11.40;;;;;;;20.81;92.51;100385.16;5100709;27;20498;-64
2022/07/21 02:34:23;;;;;;;13.07;11.80;;;;;;;20.64;93.70;100383.84;5100839;28;20427;-64
2022/07/21 02:36:49;;;;;;;13.57;12.20;;;;;;;20.55;94.04;100396.75;5100140;28;20505;-64
2022/07/21 02:39:16;;;;;;;14.10;11.30;;;;;;;20.54;94.47;100403.22;5100929;28;21137;-64
2022/07/21 02:41:43;;;;;;;14.20;12.87;;;;;;;20.65;94.36;100404.56;5099718;28;20539;-64
2022/07/21 02:44:15;;;;;;;13.07;11.80;;;;;;;20.71;94.31;100416.47;5100640;28;20462;-65
2022/07/21 02:46:43;;;;;;;14.67;12.10;;;;;;;20.71;94.21;100417.34;5099803;28;20477;-64
2022/07/21 02:49:10;;;;;;;14.23;12.83;;;;;;;20.63;94.48;100423.78;5100696;28;20447;-65
2022/07/21 02:51:37;;;;;;;14.10;12.00;;;;;;;20.70;94.55;100421.09;5100348;27;20471;-65
2022/07/21 02:54:03;;;;;;;13.03;11.83;;;;;;;20.69;94.67;100422.97;5101023;28;20463;-65
2022/07/21 02:56:32;;;;;;;14.40;12.43;;;;;;;20.75;94.56;100432.19;5099646;27;20540;-65
2022/07/21 02:58:59;;;;;;;13.90;12.53;;;;;;;20.81;94.11;100425.91;5100572;28;20518;-65
2022/07/21 03:01:26;;;;;;;13.87;12.47;;;;;;;20.88;93.74;100432.25;5100439;27;20482;-65
2022/07/21 03:03:54;;;;;;;13.13;11.80;;;;;;;20.91;93.60;100432.88;5100630;28;20504;-66
2022/07/21 03:06:20;;;;;;;12.57;11.47;;;;;;;20.99;93.04;100436.25;5099835;28;20475;-65
2022/07/21 03:08:47;;;;;;;13.23;12.03;;;;;;;20.99;92.77;100443.56;5100410;28;20467;-66
2022/07/21 03:11:14;;;;;;;13.60;12.40;;;;;;;20.95;92.42;100434.97;5099021;27;20503;-65
2022/07/21 03:13:40;;;;;;;13.80;12.40;;;;;;;21.18;91.18;100440.06;5100995;28;20440;-65
2022/07/21 03:16:07;;;;;;;14.17;12.70;;;;;;;21.26;90.54;100439.00;5099884;27;20496;-65
2022/07/21 03:18:35;;;;;;;12.57;11.43;;;;;;;21.09;90.79;100437.72;5101505;28;20454;-65
2022/07/21 03:21:03;;;;;;;12.57;11.37;;;;;;;21.01;91.97;100436.88;5103665;27;20471;-65
2022/07/21 03:23:29;;;;;;;12.47;11.27;;;;;;;21.06;92.54;100441.69;5104831;28;20427;-65
2022/07/21 03:25:56;;;;;;;14.10;12.70;;;;;;;21.14;91.85;100437.94;5103301;27;20479;-65
2022/07/21 03:28:23;;;;;;;17.50;15.70;;;;;;;20.83;92.07;100433.88;5104785;28;20502;-65
2022/07/21 03:30:49;;;;;;;19.83;17.27;;;;;;;20.73;92.28;100438.84;5103536;27;20478;-65
2022/07/21 03:33:16;;;;;;;25.73;21.53;;;;;;;20.73;92.24;100438.84;5104850;28;20427;-65
2022/07/21 03:35:43;;;;;;;24.63;22.33;;;;;;;20.74;92.59;100426.94;5103589;27;20458;-65
2022/07/21 03:38:11;;;;;;;26.17;23.37;;;;;;;20.68;92.78;100444.91;5104515;28;20999;-65
2022/07/21 03:40:39;;;;;;;28.10;22.90;;;;;;;20.67;92.67;100448.66;5103031;28;20501;-65
2022/07/21 03:43:07;;;;;;;24.77;22.27;;;;;;;20.42;93.45;100446.41;5104657;28;20419;-65
2022/07/21 03:45:36;;;;;;;22.17;19.97;;;;;;;20.13;93.88;100450.19;5103677;27;20523;-64
2022/07/21 03:48:05;;;;;;;20.53;18.33;;;;;;;20.09;93.12;100449.75;5103607;28;20451;-64
2022/07/21 03:50:31;;;;;;;20.93;18.83;;;;;;;20.20;91.54;100450.25;5103726;27;20502;-65
2022/07/21 03:52:58;;;;;;;22.23;17.80;;;;;;;20.13;91.93;100455.63;5104433;28;20461;-65
2022/07/21 03:55:27;;;;;;;21.30;18.80;;;;;;;19.86;92.58;100470.88;5102632;27;21072;-65
2022/07/21 03:57:55;;;;;;;18.90;16.97;;;;;;;19.77;92.64;100478.31;5104378;28;20842;-65
2022/07/21 04:00:24;;;;;;;16.90;15.20;;;;;;;19.69;91.51;100470.28;5103251;27;20770;-65
2022/07/21 04:02:51;;;;;;;14.30;12.90;;;;;;;19.69;91.33;100473.84;5103568;28;20439;-64
2022/07/21 04:05:19;;;;;;;12.50;11.20;;;;;;;19.60;90.87;100477.72;5102961;27;20455;-65
2022/07/21 04:07:47;;;;;;;14.63;10.87;;;;;;;19.44;91.59;100469.84;5103871;28;20435;-65
2022/07/21 04:10:15;;;;;;;10.67;9.57;;;;;;;19.29;91.76;100470.75;5102687;28;20951;-65
2022/07/21 04:12:43;;;;;;;10.20;9.20;;;;;;;19.08;93.55;100473.41;5103349;28;20447;-64
2022/07/21 04:15:12;;;;;;;12.37;10.07;;;;;;;18.87;95.31;100479.63;5103382;27;20442;-64
2022/07/21 04:17:39;;;;;;;10.37;9.37;;;;;;;19.07;94.97;100494.25;5103492;28;20423;-64
2022/07/21 04:20:08;;;;;;;11.13;9.83;;;;;;;19.06;95.10;100489.88;5103449;28;20474;-66
2022/07/21 04:22:35;;;;;;;10.50;9.50;;;;;;;19.06;94.41;100481.75;5103099;28;20447;-64
2022/07/21 04:25:01;;;;;;;10.97;9.87;;;;;;;19.09;94.52;100484.06;5092331;28;20443;-64
2022/07/21 04:27:28;;;;;;;11.07;9.97;;;;;;;19.03;94.87;100484.00;5089114;28;20471;-64
2022/07/21 04:29:57;;;;;;;9.97;8.97;;;;;;;19.12;94.71;100491.81;5082408;28;20472;-65
2022/07/21 04:32:24;;;;;;;9.37;8.43;;;;;;;19.12;93.44;100489.09;5062806;28;20489;-64
2022/07/21 04:34:50;;;;;;;8.37;7.53;;;;;;;19.44;91.76;100489.66;5061914;28;20441;-64
2022/07/21 04:37:17;;;;;;;8.50;7.80;;;;;;;19.50;91.33;100488.88;5061436;28;20487;-64
2022/07/21 04:39:44;;;;;;;7.87;7.07;;;;;;;19.49;91.97;100486.38;5062259;28;20488;-64
2022/07/21 04:42:10;;;;;;;7.33;6.60;;;;;;;19.43;91.60;100482.56;5060542;28;21366;-64
2022/07/21 04:44:37;;;;;;;7.00;6.27;;;;;;;19.42;91.32;100475.44;5062334;28;20458;-64
2022/07/21 04:47:05;;;;;;;6.83;6.20;;;;;;;19.43;91.46;100471.72;5061194;28;20485;-64
2022/07/21 04:49:32;;;;;;;5.90;5.40;;;;;;;19.30;90.91;100474.28;5061574;28;20492;-64
2022/07/21 04:51:58;;;;;;;5.97;5.47;;;;;;;19.47;91.05;100485.72;5061744;28;20502;-64
2022/07/21 04:54:25;;;;;;;6.17;5.70;;;;;;;19.57;90.56;100481.66;5061664;28;20881;-64
2022/07/21 04:56:52;;;;;;;6.40;5.80;;;;;;;19.66;89.64;100493.22;5060670;28;21028;-64
2022/07/21 04:59:18;;;;;;;6.17;5.57;;;;;;;19.55;89.74;100497.28;5062135;28;20445;-64
2022/07/21 05:01:45;;;;;;;6.70;6.00;;;;;;;19.75;89.11;100497.53;5061384;28;20508;-64
2022/07/21 05:04:13;;;;;;;5.20;4.70;;;;;;;19.76;88.98;100495.63;5061395;28;20437;-65
2022/07/21 05:06:40;;;;;;;5.77;5.27;;;;;;;19.89;88.42;100503.91;5060907;28;20476;-64
2022/07/21 05:09:06;;;;;;;6.27;5.67;;;;;;;19.80;88.65;100504.22;5062200;28;20456;-64
2022/07/21 05:11:33;;;;;;;7.73;7.03;;;;;;;19.94;87.36;100500.59;5060429;28;20477;-64
2022/07/21 05:14:00;;;;;;;7.03;6.40;;;;;;;19.90;88.43;100500.13;5061789;28;20452;-65
2022/07/21 05:16:26;;;;;;;8.10;7.40;;;;;;;20.00;88.11;100498.94;5060518;28;20481;-65
2022/07/21 05:18:53;;;;;;;7.20;6.50;;;;;;;19.99;88.31;100503.53;5061238;28;20482;-65
2022/07/21 05:21:21;;;;;;;8.37;7.57;;;;;;;20.05;88.14;100499.19;5061112;28;20516;-65
2022/07/21 05:23:48;;;;;;;9.77;8.87;;;;;;;19.98;88.05;100496.47;5061577;28;20425;-65
2022/07/21 05:26:14;;;;;;;9.97;8.97;;;;;;;20.18;87.92;100498.47;5059286;28;20541;-66
2022/07/21 05:28:41;;;;;;;11.50;10.40;;;;;;;20.19;87.70;100498.28;5061710;28;20809;-65
2022/07/21 05:31:09;;;;;;;13.23;11.97;;;;;;;20.12;87.81;100497.41;5061086;28;20476;-65
2022/07/21 05:33:36;;;;;;;14.80;12.97;;;;;;;20.12;87.49;100489.25;5060801;28;20468;-65
2022/07/21 05:36:02;;;;;;;19.07;17.10;;;;;;;20.18;87.58;100487.63;5060537;28;20480;-65
2022/07/21 05:38:31;;;;;;;17.40;15.60;;;;;;;20.03;87.35;100483.13;5061646;28;20461;-65
2022/07/21 05:40:59;;;;;;;19.27;17.20;;;;;;;20.21;86.78;100479.09;5058731;28;20473;-65
2022/07/21 05:43:26;;;;;;;19.53;17.63;;;;;;;20.33;86.81;100472.06;5061339;28;20535;-65
2022/07/21 05:45:53;;;;;;;20.67;18.47;;;;;;;20.40;86.52;100475.66;5060034;28;20476;-65
2022/07/21 05:48:20;;;;;;;20.40;18.20;;;;;;;20.51;86.22;100476.97;5060291;28;20448;-65
2022/07/21 05:50:47;;;;;;;21.10;19.10;;;;;;;20.68;85.92;100482.94;5060430;28;20504;-65
2022/07/21 05:53:13;;;;;;;20.80;18.80;;;;;;;20.66;85.31;100480.44;5061448;28;20482;-65
2022/07/21 05:55:41;;;;;;;20.83;18.87;;;;;;;20.88;84.15;100483.88;5059100;28;21031;-65
2022/07/21 05:58:08;;;;;;;20.47;18.47;;;;;;;21.00;83.30;100483.28;5061336;28;20428;-65
2022/07/21 06:00:35;;;;;;;21.40;19.37;;;;;;;21.16;81.94;100493.81;5060037;28;20476;-65
2022/07/21 06:03:01;;;;;;;19.57;17.73;;;;;;;21.20;81.66;100497.78;5075363;28;20479;-65
2022/07/21 06:05:28;;;;;;;24.43;19.60;;;;;;;21.33;80.89;100502.41;5084281;28;20463;-65
2022/07/21 06:07:55;;;;;;;21.57;19.37;;;;;;;21.38;80.50;100518.94;5102256;28;20457;-65
2022/07/21 06:10:21;;;;;;;22.47;19.80;;;;;;;21.50;81.59;100516.50;5100055;28;20451;-65
2022/07/21 06:12:49;;;;;;;21.63;19.63;;;;;;;21.39;80.95;100520.63;5101495;28;20473;-65
2022/07/21 06:15:20;;;;;;;21.83;19.80;;;;;;;21.51;81.59;100523.63;5101643;28;20459;-65
2022/07/21 06:17:46;;;;;;;22.40;20.10;;;;;;;21.76;82.23;100534.75;5100229;28;20459;-65
2022/07/21 06:20:14;;;;;;;21.17;18.90;;;;;;;21.56;79.25;100540.19;5101284;28;20533;-65
2022/07/21 06:22:41;;;;;;;21.33;19.17;;;;;;;21.61;79.42;100539.53;5101412;28;20427;-65
2022/07/21 06:25:09;;;;;;;21.30;19.30;;;;;;;21.41;79.54;100536.75;5099097;28;20451;-65
2022/07/21 06:27:35;;;;;;;18.83;16.90;;;;;;;21.24;80.98;100539.00;5101059;28;20458;-64
2022/07/21 06:30:04;;;;;;;18.10;16.20;;;;;;;21.24;79.07;100544.44;5101535;28;20479;-65
2022/07/21 06:32:31;;;;;;;19.00;17.20;;;;;;;21.05;79.98;100544.16;5096624;28;20455;-64
2022/07/21 06:34:58;;;;;;;19.43;17.63;;;;;;;21.13;80.98;100550.47;5081280;28;20434;-65
2022/07/21 06:37:24;;;;;;;20.13;18.03;;;;;;;20.87;80.58;100549.31;5080833;28;20483;-65
2022/07/21 06:39:51;;;;;;;20.23;18.40;;;;;;;20.82;82.27;100554.50;5079892;28;20634;-65
2022/07/21 06:42:18;;;;;;;22.90;20.70;;;;;;;20.65;82.99;100554.81;5080472;28;20476;-65
2022/07/21 06:44:44;;;;;;;22.70;20.50;;;;;;;20.78;83.22;100570.38;5081325;28;20432;-65
2022/07/21 06:47:13;;;;;;;23.37;21.27;;;;;;;20.69;82.74;100564.25;5078382;28;20496;-65
2022/07/21 06:49:39;;;;;;;24.17;21.97;;;;;;;20.90;81.78;100565.22;5081022;28;20452;-65
2022/07/21 06:52:06;;;;;;;24.37;22.07;;;;;;;21.00;81.74;100565.66;5080436;28;20476;-64
2022/07/21 06:54:33;;;;;;;20.80;18.80;;;;;;;21.16;80.16;100564.50;5079572;28;20469;-65
2022/07/21 06:56:59;;;;;;;19.47;17.77;;;;;;;20.95;80.83;100565.41;5079787;28;20476;-65
2022/07/21 06:59:26;;;;;;;20.57;18.67;;;;;;;21.18;79.81;100564.28;5081349;28;20448;-64
2022/07/21 07:01:53;;;;;;;19.23;17.47;;;;;;;21.58;77.46;100561.75;5078842;28;20475;-65
2022/07/21 07:04:21;;;;;;;19.07;17.10;;;;;;;21.46;78.16;100566.94;5079569;28;20435;-64
2022/07/21 07:06:51;;;;;;;17.53;15.73;;;;;;;22.08;76.51;100564.97;5078990;28;20577;-65
2022/07/21 07:09:18;;;;;;;18.90;17.13;;;;;;;22.46;74.50;100564.31;5080021;28;20800;-64
2022/07/21 07:11:46;;;;;;;18.00;16.30;;;;;;;22.88;72.67;100566.75;5078132;28;20503;-65
2022/07/21 07:14:13;;;;;;;17.63;16.00;;;;;;;22.54;72.37;100560.56;5080139;28;20437;-65
2022/07/21 07:16:40;;;;;;;18.70;17.10;;;;;;;22.05;75.92;100559.06;5078638;28;20464;-65
2022/07/21 07:19:06;;;;;;;19.57;17.77;;;;;;;21.84;75.50;100554.66;5079107;28;20466;-64
2022/07/21 07:21:34;;;;;;;20.33;18.27;;;;;;;21.99;75.46;100549.84;5079582;28;20500;-65
2022/07/21 07:24:02;;;;;;;22.03;20.03;;;;;;;21.94;76.41;100561.38;5079147;28;20994;-65
2022/07/21 07:26:29;;;;;;;19.67;17.77;;;;;;;22.00;75.32;100554.28;5077619;28;20495;-65
2022/07/21 07:28:56;;;;;;;20.90;18.90;;;;;;;22.19;75.55;100558.88;5079185;28;20501;-65
2022/07/21 07:31:22;;;;;;;22.37;18.17;;;;;;;22.62;72.56;100567.66;5079648;28;20540;-65
2022/07/21 07:33:49;;;;;;;19.20;17.20;;;;;;;23.43;70.46;100572.66;5079265;28;20432;-65
2022/07/21 07:36:16;;;;;;;18.40;15.90;;;;;;;23.47;68.46;100563.00;5079012;28;20472;-64
2022/07/21 07:38:44;;;;;;;16.50;14.90;;;;;;;23.60;67.87;100559.34;5079870;28;20448;-65
2022/07/21 07:41:10;;;;;;;16.30;14.77;;;;;;;22.81;72.06;100558.63;5077362;28;20496;-65
2022/07/21 07:43:37;;;;;;;17.20;15.40;;;;;;;22.60;72.64;100565.16;5079874;28;20461;-65
2022/07/21 07:46:05;;;;;;;17.70;15.97;;;;;;;22.32;74.07;100559.94;5078555;28;20487;-65
2022/07/21 07:48:34;;;;;;;18.57;16.87;;;;;;;21.95;75.33;100567.66;5078728;28;20486;-64
2022/07/21 07:51:00;;;;;;;19.43;16.50;;;;;;;22.38;73.88;100565.41;5078730;28;20475;-64
2022/07/21 07:53:27;;;;;;;18.20;16.33;;;;;;;22.63;72.75;100563.91;5079748;28;20832;-65
2022/07/21 07:55:56;;;;;;;19.07;17.07;;;;;;;23.12;71.90;100567.97;5077526;28;21126;-64
2022/07/21 07:58:22;;;;;;;17.30;15.50;;;;;;;23.21;71.91;100569.44;5079932;28;20428;-65
2022/07/21 08:00:49;;;;;;;18.07;16.27;;;;;;;22.74;72.30;100576.84;5079056;28;20488;-64
2022/07/21 08:03:16;;;;;;;16.40;14.80;;;;;;;22.79;71.49;100568.06;5078277;28;20928;-64
2022/07/21 08:05:43;;;;;;;17.17;15.47;;;;;;;22.44;72.72;100571.03;5081147;28;20520;-64
2022/07/21 08:08:09;;;;;;;17.20;15.50;;;;;;;22.77;71.74;100572.88;5083121;28;20437;-65
2022/07/21 08:10:37;;;;;;;16.77;15.17;;;;;;;22.83;69.97;100572.88;5085192;28;20513;-65
2022/07/21 08:13:05;;;;;;;15.97;14.50;;;;;;;23.06;70.05;100577.84;5096146;28;20481;-65
2022/07/21 08:15:31;;;;;;;15.33;13.80;;;;;;;23.09;69.16;100571.97;5097329;27;20463;-65
2022/07/21 08:17:58;;;;;;;15.17;13.77;;;;;;;23.09;70.38;100573.88;5102463;28;20455;-65
2022/07/21 08:20:25;;;;;;;14.03;12.77;;;;;;;23.39;68.03;100571.44;5102953;28;20490;-64
2022/07/21 08:22:51;;;;;;;14.70;13.13;;;;;;;23.64;67.41;100566.06;5102588;28;20431;-64
2022/07/21 08:25:18;;;;;;;13.27;11.97;;;;;;;24.40;65.23;100566.97;5101412;28;20450;-64
2022/07/21 08:27:45;;;;;;;13.50;12.10;;;;;;;25.22;60.40;100554.13;5102140;28;20451;-64
2022/07/21 08:30:13;;;;;;;12.80;11.60;;;;;;;26.24;58.25;100556.03;5101708;28;20439;-64
2022/07/21 08:32:40;;;;;;;11.13;10.17;;;;;;;26.46;56.00;100561.78;5102610;28;20484;-64
2022/07/21 08:35:08;;;;;;;11.60;10.50;;;;;;;25.02;59.49;100563.44;5101848;28;20446;-64
2022/07/21 08:37:35;;;;;;;11.27;10.17;;;;;;;25.16;60.09;100561.38;5103164;28;20485;-64
2022/07/21 08:40:03;;;;;;;10.37;9.30;;;;;;;25.50;58.18;100546.22;5103192;28;20439;-64
2022/07/21 08:42:30;;;;;;;10.23;9.17;;;;;;;24.88;60.22;100556.44;5101837;28;20501;-64
2022/07/21 08:44:57;;;;;;;10.47;9.57;;;;;;;24.57;61.04;100566.44;5103483;28;20419;-64
2022/07/21 08:47:26;;;;;;;11.57;10.57;;;;;;;24.37;63.75;100563.84;5101788;28;20475;-64
2022/07/21 08:49:53;;;;;;;11.67;10.57;;;;;;;24.57;62.85;100566.44;5103498;28;20447;-65
2022/07/21 08:52:20;;;;;;;10.50;9.60;;;;;;;25.73;57.03;100555.56;5102359;28;20496;-64
2022/07/21 08:54:47;;;;;;;12.00;10.60;;;;;;;25.50;60.10;100557.16;5103169;28;20516;-64
2022/07/21 08:57:13;;;;;;;10.60;9.20;;;;;;;26.80;55.70;100562.00;5101751;28;20528;-65
2022/07/21 08:59:40;;;;;;;11.03;10.03;;;;;;;26.04;57.75;100550.88;5103189;28;20442;-64
2022/07/21 09:02:13;;;;;;;10.03;9.13;;;;;;;25.35;60.60;100552.09;5102160;28;20475;-64
2022/07/21 09:04:42;;;;;;;12.80;10.60;;;;;;;25.38;59.30;100559.00;5102756;28;20450;-64
2022/07/21 09:07:08;;;;;;;10.53;9.63;;;;;;;25.02;59.48;100557.94;5101940;28;20529;-64
2022/07/21 09:09:36;;;;;;;10.43;9.40;;;;;;;24.57;61.79;100569.16;5096564;28;20474;-65
2022/07/21 09:12:04;;;;;;;10.10;9.20;;;;;;;24.48;64.77;100560.41;5100480;28;20855;-64
2022/07/21 09:14:32;;;;;;;10.67;9.17;;;;;;;25.40;59.11;100551.41;5102613;28;20446;-65
2022/07/21 09:17:00;;;;;;;10.57;9.47;;;;;;;25.41;61.97;100558.53;5099089;28;20479;-64
2022/07/21 09:19:28;;;;;;;10.10;9.10;;;;;;;24.39;62.50;100553.53;5101780;28;20443;-64
2022/07/21 09:21:57;;;;;;;9.07;8.27;;;;;;;23.89;62.31;100543.47;5101278;27;20467;-64
2022/07/21 09:24:29;;;;;;;11.17;9.50;;;;;;;23.65;62.84;100556.81;5101325;28;21375;-65
2022/07/21 09:27:08;;;;;;;10.57;9.57;;;;;;;23.22;65.18;100554.72;5101011;28;20474;-65
2022/07/21 09:29:38;;;;;;;9.60;8.80;;;;;;;23.43;65.87;100550.84;5101878;28;20451;-65
2022/07/21 09:32:19;;;;;;;10.10;9.20;;;;;;;23.87;63.95;100553.78;5100238;27;20474;-65
2022/07/21 09:34:48;;;;;;;10.10;9.17;;;;;;;25.46;57.93;100542.25;5101957;28;20916;-64
2022/07/21 09:37:16;;;;;;;8.90;8.20;;;;;;;26.14;54.83;100547.56;5100524;28;20516;-65
2022/07/21 09:39:48;;;;;;;9.37;8.50;;;;;;;25.88;54.60;100546.91;5100877;28;20477;-65
2022/07/21 09:42:17;;;;;;;9.60;8.70;;;;;;;25.05;56.07;100543.81;5100504;28;20896;-64
2022/07/21 09:44:45;;;;;;;9.27;8.37;;;;;;;25.06;57.11;100544.66;5101454;28;20431;-64
2022/07/21 09:47:13;;;;;;;9.30;8.40;;;;;;;25.44;56.13;100538.91;5098954;28;20491;-64
2022/07/21 09:49:40;;;;;;;8.93;8.13;;;;;;;26.24;55.26;100542.34;5100941;28;20450;-64
2022/07/21 09:52:20;;;;;;;10.97;7.87;;;;;;;27.54;51.31;100542.97;5100580;28;20493;-64
2022/07/21 09:54:47;;;;;;;9.03;8.13;;;;;;;27.55;50.38;100547.41;5100899;28;20465;-65
2022/07/21 09:57:15;;;;;;;9.37;8.50;;;;;;;26.65;52.12;100549.63;5099781;28;20466;-64
2022/07/21 09:59:44;;;;;;;9.83;8.93;;;;;;;26.02;53.45;100542.94;5100280;28;20924;-65
2022/07/21 10:02:16;;;;;;;9.30;8.50;;;;;;;24.84;56.32;100541.53;5100374;28;20479;-65
2022/07/21 10:04:43;;;;;;;10.57;9.47;;;;;;;24.34;58.21;100542.44;5100591;28;20444;-65
2022/07/21 10:07:11;;;;;;;10.23;9.33;;;;;;;24.71;58.62;100559.75;5099505;28;20475;-65
2022/07/21 10:09:39;;;;;;;11.10;10.10;;;;;;;24.94;59.26;100542.66;5100290;28;20451;-65
2022/07/21 10:12:06;;;;;;;9.40;8.60;;;;;;;25.25;57.75;100543.59;5099794;28;20504;-65
2022/07/21 10:14:33;;;;;;;11.00;9.90;;;;;;;26.26;55.41;100529.22;5099603;28;20427;-65
2022/07/21 10:17:00;;;;;;;10.30;9.27;;;;;;;27.39;50.49;100532.53;5099150;28;20479;-65
2022/07/21 10:19:29;;;;;;;9.83;8.93;;;;;;;26.41;52.66;100524.13;5100462;28;20451;-65
2022/07/21 10:22:03;;;;;;;9.23;8.40;;;;;;;25.73;54.67;100529.00;5098875;28;20475;-65
2022/07/21 10:24:30;;;;;;;10.40;9.50;;;;;;;25.29;56.39;100527.53;5100368;28;20431;-65
2022/07/21 10:27:04;;;;;;;11.83;10.83;;;;;;;24.33;59.12;100538.88;5099045;28;21219;-64
2022/07/21 10:29:49;;;;;;;13.77;11.37;;;;;;;23.92;63.40;100536.69;5099579;28;20447;-65
2022/07/21 10:32:17;;;;;;;14.20;12.90;;;;;;;24.62;60.63;100536.53;5099428;28;20474;-65
2022/07/21 10:34:44;;;;;;;13.33;12.03;;;;;;;25.04;60.06;100530.38;5100194;28;20443;-65
2022/07/21 10:37:11;;;;;;;13.40;11.70;;;;;;;24.76;61.47;100539.97;5098493;28;20475;-65
2022/07/21 10:39:39;;;;;;;14.00;12.80;;;;;;;24.06;61.13;100530.91;5097427;28;20455;-64
2022/07/21 10:42:17;;;;;;;13.47;12.37;;;;;;;24.52;60.47;100537.00;5087337;27;20485;-64
2022/07/21 10:44:45;;;;;;;11.23;10.33;;;;;;;24.79;59.97;100536.78;5099451;28;20460;-65
2022/07/21 10:47:14;;;;;;;11.40;10.40;;;;;;;25.15;60.01;100535.91;5097640;28;20486;-66
2022/07/21 10:49:44;;;;;;;12.23;10.50;;;;;;;25.88;57.42;100535.94;5098656;28;20450;-65
2022/07/21 10:52:45;;;;;;;10.40;9.40;;;;;;;25.45;57.61;100534.25;5098910;28;20471;-65
2022/07/21 10:55:16;;;;;;;9.60;8.60;;;;;;;25.77;56.31;100521.16;5098308;27;20458;-65
2022/07/21 10:57:46;;;;;;;9.87;8.87;;;;;;;27.71;51.73;100518.28;5098962;28;20514;-64
2022/07/21 11:00:28;;;;;;;8.20;7.50;;;;;;;26.38;53.15;100523.75;5099152;27;20531;-65
2022/07/21 11:02:56;;;;;;;8.20;7.50;;;;;;;27.42;50.03;100517.47;5098673;28;20493;-65
2022/07/21 11:05:24;;;;;;;7.73;6.97;;;;;;;26.70;52.76;100526.13;5099236;28;20580;-66
2022/07/21 11:08:15;;;;;;;8.07;7.40;;;;;;;26.33;52.96;100526.38;5099678;28;20457;-66
2022/07/21 11:10:44;;;;;;;8.03;7.33;;;;;;;25.98;53.58;100511.56;5093117;28;20544;-66
2022/07/21 11:13:13;;;;;;;7.73;7.03;;;;;;;26.00;54.10;100509.44;5100147;28;20415;-64
2022/07/21 11:15:56;;;;;;;8.67;7.90;;;;;;;25.11;56.48;100515.53;5099299;28;20475;-64
2022/07/21 11:18:24;;;;;;;7.83;7.03;;;;;;;25.04;57.42;100514.78;5099309;28;20498;-65
2022/07/21 11:21:18;;;;;;;9.43;8.53;;;;;;;24.42;64.43;100518.38;5099355;27;20471;-64